sensor_id;sensor_type;location;lat;lon;timestamp;pressure;altitude;pressure_sealevel;temperature;humidity
73306;BME280;61530;51.158;0.880;2022-09-28T00:00:19;995.916;;;11.5;44.3725
73306;BME280;61530;51.158;0.880;2022-09-28T00:01:20;995.891;;;11.5;44.6557
73306;BME280;61530;51.158;0.880;2022-09-28T00:02:25;995.894;;;11.5;44.6232
73306;BME280;61530;51.158;0.880;2022-09-28T00:03:30;995.904;;;11.5;44.7254
73306;BME280;61530;51.158;0.880;2022-09-28T00:04:31;995.897;;;11.5;44.2368
73306;BME280;61530;51.158;0.880;2022-09-28T00:05:37;995.893;;;11.5;44.1859
73306;BME280;61530;51.158;0.880;2022-09-28T00:06:43;995.883;;;11.5;45.1723
73306;BME280;61530;51.158;0.880;2022-09-28T00:07:43;995.877;;;11.5625;44.1439
73306;BME280;61530;51.158;0.880;2022-09-28T00:08:49;995.869;;;11.4375;45.0449
73306;BME280;61530;51.158;0.880;2022-09-28T00:09:54;995.844;;;11.5;45.1972
73306;BME280;61530;51.158;0.880;2022-09-28T00:10:55;995.859;;;11.4375;44.466
73306;BME280;61530;51.158;0.880;2022-09-28T00:12:01;995.839;;;11.5;44.5067
73306;BME280;61530;51.158;0.880;2022-09-28T00:13:06;995.876;;;11.375;44.6477
73306;BME280;61530;51.158;0.880;2022-09-28T00:14:09;995.869;;;11.3125;45.0099
73306;BME280;61530;51.158;0.880;2022-09-28T00:15:15;995.857;;;11.375;45.3433
73306;BME280;61530;51.158;0.880;2022-09-28T00:16:17;995.862;;;11.375;45.0995
73306;BME280;61530;51.158;0.880;2022-09-28T00:17:21;995.866;;;11.4375;45.1108
73306;BME280;61530;51.158;0.880;2022-09-28T00:18:27;995.825;;;11.4375;44.5332
73306;BME280;61530;51.158;0.880;2022-09-28T00:19:27;995.833;;;11.4375;44.3467
73306;BME280;61530;51.158;0.880;2022-09-28T00:20:33;995.825;;;11.4375;45.3728
73306;BME280;61530;51.158;0.880;2022-09-28T00:21:40;995.835;;;11.375;44.7934
73306;BME280;61530;51.158;0.880;2022-09-28T00:22:39;995.833;;;11.4375;44.4695
73306;BME280;61530;51.158;0.880;2022-09-28T00:23:45;995.841;;;11.4375;45.0026
73306;BME280;61530;51.158;0.880;2022-09-28T00:24:51;995.854;;;11.375;45.0594
73306;BME280;61530;51.158;0.880;2022-09-28T00:25:51;995.854;;;11.375;44.2662
73306;BME280;61530;51.158;0.880;2022-09-28T00:26:58;995.821;;;11.375;44.1589
73306;BME280;61530;51.158;0.880;2022-09-28T00:28:03;995.811;;;11.3125;44.5274
73306;BME280;61530;51.158;0.880;2022-09-28T00:29:03;995.827;;;11.3125;44.492
73306;BME280;61530;51.158;0.880;2022-09-28T00:30:09;995.823;;;11.3125;45.0371
73306;BME280;61530;51.158;0.880;2022-09-28T00:31:15;995.776;;;11.25;44.7653
73306;BME280;61530;51.158;0.880;2022-09-28T00:32:15;995.817;;;11.3125;45.1784
73306;BME280;61530;51.158;0.880;2022-09-28T00:33:21;995.792;;;11.3125;44.912
73306;BME280;61530;51.158;0.880;2022-09-28T00:34:28;995.777;;;11.3125;45.1215
73306;BME280;61530;51.158;0.880;2022-09-28T00:35:27;995.771;;;11.3125;44.747
73306;BME280;61530;51.158;0.880;2022-09-28T00:36:33;995.77;;;11.25;44.7916
73306;BME280;61530;51.158;0.880;2022-09-28T00:37:39;995.785;;;11.25;45.1659
73306;BME280;61530;51.158;0.880;2022-09-28T00:38:39;995.788;;;11.25;44.4636
73306;BME280;61530;51.158;0.880;2022-09-28T00:39:46;995.76;;;11.1875;44.3789
73306;BME280;61530;51.158;0.880;2022-09-28T00:40:51;995.779;;;11.25;45.1309
73306;BME280;61530;51.158;0.880;2022-09-28T00:41:51;995.82;;;11.125;45.0912
73306;BME280;61530;51.158;0.880;2022-09-28T00:42:57;995.779;;;11.1875;45.0304
73306;BME280;61530;51.158;0.880;2022-09-28T00:45:01;995.782;;;11.25;43.8267
73306;BME280;61530;51.158;0.880;2022-09-28T00:45:16;995.793;;;11.0;44.774
73306;BME280;61530;51.158;0.880;2022-09-28T00:46:28;995.757;;;11.125;44.4519
73306;BME280;61530;51.158;0.880;2022-09-28T00:47:29;995.763;;;11.125;44.6943
73306;BME280;61530;51.158;0.880;2022-09-28T00:48:31;995.784;;;11.125;44.7695
73306;BME280;61530;51.158;0.880;2022-09-28T00:49:40;995.792;;;11.125;44.7753
73306;BME280;61530;51.158;0.880;2022-09-28T00:50:35;995.786;;;11.125;44.6836
73306;BME280;61530;51.158;0.880;2022-09-28T00:51:42;995.804;;;11.1875;44.2191
73306;BME280;61530;51.158;0.880;2022-09-28T00:52:49;995.798;;;11.125;44.3837
73306;BME280;61530;51.158;0.880;2022-09-28T00:53:48;995.773;;;11.125;43.9932
73306;BME280;61530;51.158;0.880;2022-09-28T00:54:52;995.776;;;11.0625;44.1978
73306;BME280;61530;51.158;0.880;2022-09-28T00:56:01;995.786;;;11.1875;44.6347
73306;BME280;61530;51.158;0.880;2022-09-28T00:56:59;995.796;;;11.25;44.7989
73306;BME280;61530;51.158;0.880;2022-09-28T00:58:00;995.775;;;11.25;45.1509
73306;BME280;61530;51.158;0.880;2022-09-28T00:59:04;995.743;;;11.25;45.2142
73306;BME280;61530;51.158;0.880;2022-09-28T01:00:05;995.76;;;11.25;45.1755
73306;BME280;61530;51.158;0.880;2022-09-28T01:01:04;995.772;;;11.125;44.3594
73306;BME280;61530;51.158;0.880;2022-09-28T01:02:04;995.799;;;11.1875;44.5232
73306;BME280;61530;51.158;0.880;2022-09-28T01:03:10;995.77;;;11.25;43.847
73306;BME280;61530;51.158;0.880;2022-09-28T01:04:16;995.766;;;11.25;43.3701
73306;BME280;61530;51.158;0.880;2022-09-28T01:05:23;995.766;;;11.25;44.5569
73306;BME280;61530;51.158;0.880;2022-09-28T01:06:30;995.76;;;11.3125;44.8575
73306;BME280;61530;51.158;0.880;2022-09-28T01:07:29;995.762;;;11.3125;44.7215
73306;BME280;61530;51.158;0.880;2022-09-28T01:08:35;995.75;;;11.25;44.8004
73306;BME280;61530;51.158;0.880;2022-09-28T01:09:40;995.723;;;11.25;44.454
73306;BME280;61530;51.158;0.880;2022-09-28T01:10:40;995.729;;;11.1875;43.7896
73306;BME280;61530;51.158;0.880;2022-09-28T01:11:46;995.723;;;11.25;44.9585
73306;BME280;61530;51.158;0.880;2022-09-28T01:12:51;995.73;;;11.1875;44.9932
73306;BME280;61530;51.158;0.880;2022-09-28T01:13:54;995.745;;;11.3125;44.0831
73306;BME280;61530;51.158;0.880;2022-09-28T01:14:58;995.783;;;11.25;45.0375
73306;BME280;61530;51.158;0.880;2022-09-28T01:16:12;995.746;;;11.3125;45.2195
73306;BME280;61530;51.158;0.880;2022-09-28T01:17:09;995.751;;;11.3125;44.2434
73306;BME280;61530;51.158;0.880;2022-09-28T01:18:14;995.747;;;11.3125;43.8817
73306;BME280;61530;51.158;0.880;2022-09-28T01:19:27;995.739;;;11.25;44.0967
73306;BME280;61530;51.158;0.880;2022-09-28T01:20:25;995.74;;;11.25;43.6268
73306;BME280;61530;51.158;0.880;2022-09-28T01:21:18;995.727;;;11.1875;44.0345
73306;BME280;61530;51.158;0.880;2022-09-28T01:22:26;995.746;;;11.125;43.5686
73306;BME280;61530;51.158;0.880;2022-09-28T01:23:36;995.762;;;11.125;44.641
73306;BME280;61530;51.158;0.880;2022-09-28T01:24:38;995.742;;;11.0625;43.9783
73306;BME280;61530;51.158;0.880;2022-09-28T01:25:31;995.746;;;11.0625;43.58
73306;BME280;61530;51.158;0.880;2022-09-28T01:26:51;995.738;;;11.0;44.7654
73306;BME280;61530;51.158;0.880;2022-09-28T01:27:37;995.774;;;11.0625;44.0725
73306;BME280;61530;51.158;0.880;2022-09-28T01:28:35;995.79;;;11.0625;43.6569
73306;BME280;61530;51.158;0.880;2022-09-28T01:29:46;995.781;;;11.0;44.14
73306;BME280;61530;51.158;0.880;2022-09-28T01:30:44;995.782;;;11.0;43.2669
73306;BME280;61530;51.158;0.880;2022-09-28T01:31:53;995.808;;;11.0;44.4408
73306;BME280;61530;51.158;0.880;2022-09-28T01:32:50;995.817;;;11.0625;44.177
73306;BME280;61530;51.158;0.880;2022-09-28T01:33:51;995.794;;;11.0;44.9047
73306;BME280;61530;51.158;0.880;2022-09-28T01:34:55;995.814;;;10.9375;44.7508
73306;BME280;61530;51.158;0.880;2022-09-28T01:35:56;995.792;;;10.9375;44.2441
73306;BME280;61530;51.158;0.880;2022-09-28T01:37:01;995.814;;;11.0;44.8484
73306;BME280;61530;51.158;0.880;2022-09-28T01:38:03;995.805;;;11.0;45.041
73306;BME280;61530;51.158;0.880;2022-09-28T01:39:08;995.808;;;11.0625;44.8205
73306;BME280;61530;51.158;0.880;2022-09-28T01:40:08;995.819;;;11.0;45.1817
73306;BME280;61530;51.158;0.880;2022-09-28T01:41:11;995.818;;;11.0625;45.8541
73306;BME280;61530;51.158;0.880;2022-09-28T01:42:22;995.786;;;11.0625;45.1481
73306;BME280;61530;51.158;0.880;2022-09-28T01:43:25;995.777;;;11.0625;45.3069
73306;BME280;61530;51.158;0.880;2022-09-28T01:44:33;995.784;;;11.0625;44.8814
73306;BME280;61530;51.158;0.880;2022-09-28T01:45:40;995.762;;;11.0625;44.1222
73306;BME280;61530;51.158;0.880;2022-09-28T01:46:38;995.75;;;11.0625;43.0159
73306;BME280;61530;51.158;0.880;2022-09-28T01:47:42;995.745;;;11.0625;43.7301
73306;BME280;61530;51.158;0.880;2022-09-28T01:48:45;995.74;;;11.0;44.0015
73306;BME280;61530;51.158;0.880;2022-09-28T01:49:44;995.773;;;11.0;44.3536
73306;BME280;61530;51.158;0.880;2022-09-28T01:50:42;995.789;;;10.9375;44.6481
73306;BME280;61530;51.158;0.880;2022-09-28T01:51:51;995.785;;;11.0;44.8236
73306;BME280;61530;51.158;0.880;2022-09-28T01:52:50;995.793;;;10.9375;44.638
73306;BME280;61530;51.158;0.880;2022-09-28T01:53:57;995.805;;;10.9375;45.1299
73306;BME280;61530;51.158;0.880;2022-09-28T01:54:56;995.813;;;10.9375;45.3795
73306;BME280;61530;51.158;0.880;2022-09-28T01:55:56;995.826;;;10.9375;44.5115
73306;BME280;61530;51.158;0.880;2022-09-28T01:56:59;995.826;;;10.9375;43.8042
73306;BME280;61530;51.158;0.880;2022-09-28T01:58:04;995.827;;;10.9375;43.933
73306;BME280;61530;51.158;0.880;2022-09-28T01:59:04;995.821;;;11.0;44.0026
73306;BME280;61530;51.158;0.880;2022-09-28T02:00:09;995.811;;;11.0;44.5245
73306;BME280;61530;51.158;0.880;2022-09-28T02:01:19;995.807;;;11.0;44.1959
73306;BME280;61530;51.158;0.880;2022-09-28T02:02:25;995.806;;;11.0;44.7295
73306;BME280;61530;51.158;0.880;2022-09-28T02:03:23;995.828;;;11.0;44.5767
73306;BME280;61530;51.158;0.880;2022-09-28T02:04:29;995.784;;;11.125;45.1149
73306;BME280;61530;51.158;0.880;2022-09-28T02:05:29;995.797;;;11.0;44.1447
73306;BME280;61530;51.158;0.880;2022-09-28T02:06:34;995.799;;;11.0625;44.7641
73306;BME280;61530;51.158;0.880;2022-09-28T02:07:40;995.779;;;11.125;44.3381
73306;BME280;61530;51.158;0.880;2022-09-28T02:08:41;995.739;;;11.125;43.9689
73306;BME280;61530;51.158;0.880;2022-09-28T02:09:47;995.738;;;11.0625;44.4799
73306;BME280;61530;51.158;0.880;2022-09-28T02:10:54;995.738;;;11.0625;44.433
73306;BME280;61530;51.158;0.880;2022-09-28T02:11:55;995.741;;;11.0625;44.8935
73306;BME280;61530;51.158;0.880;2022-09-28T02:12:59;995.737;;;11.125;44.4445
73306;BME280;61530;51.158;0.880;2022-09-28T02:13:58;995.735;;;11.125;44.4165
73306;BME280;61530;51.158;0.880;2022-09-28T02:15:08;995.76;;;11.1875;45.4636
73306;BME280;61530;51.158;0.880;2022-09-28T02:16:04;995.777;;;11.125;45.826
73306;BME280;61530;51.158;0.880;2022-09-28T02:17:04;995.787;;;11.125;44.8637
73306;BME280;61530;51.158;0.880;2022-09-28T02:18:09;995.796;;;11.1875;45.2328
73306;BME280;61530;51.158;0.880;2022-09-28T02:19:18;995.789;;;11.125;45.0061
73306;BME280;61530;51.158;0.880;2022-09-28T02:20:15;995.792;;;11.0625;44.9606
73306;BME280;61530;51.158;0.880;2022-09-28T02:21:22;995.816;;;11.1875;44.3699
73306;BME280;61530;51.158;0.880;2022-09-28T02:22:25;995.797;;;11.125;43.7648
73306;BME280;61530;51.158;0.880;2022-09-28T02:23:22;995.823;;;11.125;44.4681
73306;BME280;61530;51.158;0.880;2022-09-28T02:24:32;995.811;;;11.0625;43.9958
73306;BME280;61530;51.158;0.880;2022-09-28T02:25:30;995.816;;;11.1875;44.1958
73306;BME280;61530;51.158;0.880;2022-09-28T02:26:36;995.807;;;11.125;44.8715
73306;BME280;61530;51.158;0.880;2022-09-28T02:27:44;995.807;;;11.1875;45.0867
73306;BME280;61530;51.158;0.880;2022-09-28T02:28:44;995.818;;;11.1875;44.2014
73306;BME280;61530;51.158;0.880;2022-09-28T02:29:45;995.816;;;11.125;44.9049
73306;BME280;61530;51.158;0.880;2022-09-28T02:30:51;995.825;;;11.0625;44.4094
73306;BME280;61530;51.158;0.880;2022-09-28T02:31:56;995.821;;;11.0625;44.4909
73306;BME280;61530;51.158;0.880;2022-09-28T02:33:00;995.81;;;11.125;44.6486
73306;BME280;61530;51.158;0.880;2022-09-28T02:34:03;995.799;;;11.0;44.9446
73306;BME280;61530;51.158;0.880;2022-09-28T02:35:12;995.819;;;11.0625;44.5336
73306;BME280;61530;51.158;0.880;2022-09-28T02:36:09;995.818;;;11.0625;44.5919
73306;BME280;61530;51.158;0.880;2022-09-28T02:37:15;995.835;;;11.0625;45.0458
73306;BME280;61530;51.158;0.880;2022-09-28T02:38:20;995.805;;;11.125;44.5133
73306;BME280;61530;51.158;0.880;2022-09-28T02:39:21;995.812;;;11.0625;44.7848
73306;BME280;61530;51.158;0.880;2022-09-28T02:40:30;995.828;;;11.0625;44.8132
73306;BME280;61530;51.158;0.880;2022-09-28T02:41:43;995.827;;;11.0625;45.1147
73306;BME280;61530;51.158;0.880;2022-09-28T02:42:39;995.831;;;11.0;45.0633
73306;BME280;61530;51.158;0.880;2022-09-28T02:43:39;995.841;;;11.0625;44.4276
73306;BME280;61530;51.158;0.880;2022-09-28T02:44:45;995.844;;;11.0625;44.6145
73306;BME280;61530;51.158;0.880;2022-09-28T02:45:49;995.843;;;11.0625;44.8069
73306;BME280;61530;51.158;0.880;2022-09-28T02:46:52;995.872;;;11.0;44.4041
73306;BME280;61530;51.158;0.880;2022-09-28T02:48:02;995.866;;;11.125;44.9144
73306;BME280;61530;51.158;0.880;2022-09-28T02:49:06;995.872;;;11.1875;44.1604
73306;BME280;61530;51.158;0.880;2022-09-28T02:50:10;995.916;;;11.1875;45.1404
73306;BME280;61530;51.158;0.880;2022-09-28T02:51:17;995.886;;;11.1875;44.5513
73306;BME280;61530;51.158;0.880;2022-09-28T02:52:21;995.896;;;11.1875;45.4186
73306;BME280;61530;51.158;0.880;2022-09-28T02:53:33;995.886;;;11.1875;45.1471
73306;BME280;61530;51.158;0.880;2022-09-28T02:54:36;995.893;;;11.25;45.3168
73306;BME280;61530;51.158;0.880;2022-09-28T02:55:42;995.909;;;11.1875;44.4669
73306;BME280;61530;51.158;0.880;2022-09-28T02:56:52;995.932;;;11.1875;44.8059
73306;BME280;61530;51.158;0.880;2022-09-28T02:57:57;995.945;;;11.1875;45.5837
73306;BME280;61530;51.158;0.880;2022-09-28T02:58:58;995.967;;;11.1875;45.18
73306;BME280;61530;51.158;0.880;2022-09-28T02:59:57;995.974;;;11.1875;45.0218
73306;BME280;61530;51.158;0.880;2022-09-28T03:00:54;995.963;;;11.125;45.7068
73306;BME280;61530;51.158;0.880;2022-09-28T03:02:01;995.977;;;11.1875;45.3166
73306;BME280;61530;51.158;0.880;2022-09-28T03:03:03;995.971;;;11.1875;45.19
73306;BME280;61530;51.158;0.880;2022-09-28T03:04:09;995.985;;;11.125;45.9914
73306;BME280;61530;51.158;0.880;2022-09-28T03:05:14;995.959;;;11.1875;45.5625
73306;BME280;61530;51.158;0.880;2022-09-28T03:06:10;995.997;;;11.125;45.7796
73306;BME280;61530;51.158;0.880;2022-09-28T03:07:15;995.984;;;11.1875;45.2527
73306;BME280;61530;51.158;0.880;2022-09-28T03:08:19;995.979;;;11.1875;45.4551
73306;BME280;61530;51.158;0.880;2022-09-28T03:09:22;996.002;;;11.1875;45.6613
73306;BME280;61530;51.158;0.880;2022-09-28T03:10:24;995.977;;;11.25;45.7929
73306;BME280;61530;51.158;0.880;2022-09-28T03:11:30;995.992;;;11.1875;45.3047
73306;BME280;61530;51.158;0.880;2022-09-28T03:12:26;996.01;;;11.125;45.3512
73306;BME280;61530;51.158;0.880;2022-09-28T03:13:32;995.965;;;11.125;45.5443
73306;BME280;61530;51.158;0.880;2022-09-28T03:14:37;995.99;;;11.1875;45.7434
73306;BME280;61530;51.158;0.880;2022-09-28T03:15:37;996.008;;;11.1875;44.8398
73306;BME280;61530;51.158;0.880;2022-09-28T03:16:43;995.999;;;11.1875;45.3856
73306;BME280;61530;51.158;0.880;2022-09-28T03:17:49;996.019;;;11.1875;45.4932
73306;BME280;61530;51.158;0.880;2022-09-28T03:18:50;996.047;;;11.1875;44.6869
73306;BME280;61530;51.158;0.880;2022-09-28T03:19:56;996.033;;;11.1875;45.4987
73306;BME280;61530;51.158;0.880;2022-09-28T03:21:03;996.031;;;11.25;45.3119
73306;BME280;61530;51.158;0.880;2022-09-28T03:22:02;996.04;;;11.1875;45.323
73306;BME280;61530;51.158;0.880;2022-09-28T03:23:08;996.009;;;11.25;45.2564
73306;BME280;61530;51.158;0.880;2022-09-28T03:24:14;996.024;;;11.125;45.4655
73306;BME280;61530;51.158;0.880;2022-09-28T03:25:14;996.002;;;11.125;44.6206
73306;BME280;61530;51.158;0.880;2022-09-28T03:26:15;995.997;;;11.125;45.0001
73306;BME280;61530;51.158;0.880;2022-09-28T03:27:21;995.993;;;11.125;45.4433
73306;BME280;61530;51.158;0.880;2022-09-28T03:28:27;995.978;;;11.0625;44.9107
73306;BME280;61530;51.158;0.880;2022-09-28T03:29:28;996.012;;;11.0625;45.549
73306;BME280;61530;51.158;0.880;2022-09-28T03:30:28;995.974;;;11.0625;45.017
73306;BME280;61530;51.158;0.880;2022-09-28T03:31:28;995.996;;;11.125;44.7263
73306;BME280;61530;51.158;0.880;2022-09-28T03:32:34;995.987;;;11.125;45.0553
73306;BME280;61530;51.158;0.880;2022-09-28T03:33:40;995.95;;;11.125;45.4761
73306;BME280;61530;51.158;0.880;2022-09-28T03:34:40;995.924;;;11.1875;45.357
73306;BME280;61530;51.158;0.880;2022-09-28T03:35:46;995.924;;;11.1875;45.1543
73306;BME280;61530;51.158;0.880;2022-09-28T03:36:52;995.926;;;11.125;45.3075
73306;BME280;61530;51.158;0.880;2022-09-28T03:37:54;995.915;;;11.1875;44.6438
73306;BME280;61530;51.158;0.880;2022-09-28T03:38:53;995.916;;;11.1875;44.886
73306;BME280;61530;51.158;0.880;2022-09-28T03:39:59;995.917;;;11.125;44.1755
73306;BME280;61530;51.158;0.880;2022-09-28T03:41:05;995.904;;;11.125;45.3789
73306;BME280;61530;51.158;0.880;2022-09-28T03:42:10;995.936;;;11.1875;45.6787
73306;BME280;61530;51.158;0.880;2022-09-28T03:43:11;995.938;;;11.125;44.9194
73306;BME280;61530;51.158;0.880;2022-09-28T03:44:17;995.913;;;11.125;45.0221
73306;BME280;61530;51.158;0.880;2022-09-28T03:45:22;995.947;;;11.0;45.1296
73306;BME280;61530;51.158;0.880;2022-09-28T03:46:25;995.934;;;11.125;44.9826
73306;BME280;61530;51.158;0.880;2022-09-28T03:47:31;995.948;;;11.125;44.5376
73306;BME280;61530;51.158;0.880;2022-09-28T03:48:33;995.953;;;11.125;45.4793
73306;BME280;61530;51.158;0.880;2022-09-28T03:49:37;995.96;;;11.125;45.304
73306;BME280;61530;51.158;0.880;2022-09-28T03:50:43;995.953;;;11.0625;44.7101
73306;BME280;61530;51.158;0.880;2022-09-28T03:51:43;995.933;;;11.125;45.1694
73306;BME280;61530;51.158;0.880;2022-09-28T03:52:49;995.961;;;11.0625;45.4693
73306;BME280;61530;51.158;0.880;2022-09-28T03:53:55;995.957;;;11.0625;45.2775
73306;BME280;61530;51.158;0.880;2022-09-28T03:54:55;995.947;;;11.125;45.4761
73306;BME280;61530;51.158;0.880;2022-09-28T03:56:04;995.952;;;11.0625;45.7242
73306;BME280;61530;51.158;0.880;2022-09-28T03:57:07;995.978;;;11.0625;44.9699
73306;BME280;61530;51.158;0.880;2022-09-28T03:58:07;995.949;;;11.125;45.0958
73306;BME280;61530;51.158;0.880;2022-09-28T03:59:13;995.993;;;11.125;45.3737
73306;BME280;61530;51.158;0.880;2022-09-28T04:00:19;995.951;;;11.125;44.6938
73306;BME280;61530;51.158;0.880;2022-09-28T04:01:19;995.971;;;11.125;44.7557
73306;BME280;61530;51.158;0.880;2022-09-28T04:02:25;995.956;;;11.1875;44.4555
73306;BME280;61530;51.158;0.880;2022-09-28T04:03:31;995.947;;;11.125;44.8471
73306;BME280;61530;51.158;0.880;2022-09-28T04:04:31;995.984;;;11.125;44.9824
73306;BME280;61530;51.158;0.880;2022-09-28T04:05:37;995.97;;;11.125;44.9766
73306;BME280;61530;51.158;0.880;2022-09-28T04:06:43;995.964;;;11.0;44.9882
73306;BME280;61530;51.158;0.880;2022-09-28T04:07:43;995.991;;;11.0625;45.6162
73306;BME280;61530;51.158;0.880;2022-09-28T04:08:49;996.018;;;11.0;45.1918
73306;BME280;61530;51.158;0.880;2022-09-28T04:09:55;996.01;;;11.0625;45.2253
73306;BME280;61530;51.158;0.880;2022-09-28T04:10:56;996.016;;;11.0625;45.5186
73306;BME280;61530;51.158;0.880;2022-09-28T04:12:01;995.996;;;11.0;45.6092
73306;BME280;61530;51.158;0.880;2022-09-28T04:13:07;996.005;;;11.0;45.0308
73306;BME280;61530;51.158;0.880;2022-09-28T04:14:07;996.003;;;11.0625;44.8816
73306;BME280;61530;51.158;0.880;2022-09-28T04:15:08;996.021;;;11.0;45.096
73306;BME280;61530;51.158;0.880;2022-09-28T04:16:14;996.001;;;10.9375;46.1892
73306;BME280;61530;51.158;0.880;2022-09-28T04:17:20;995.996;;;10.9375;45.4579
73306;BME280;61530;51.158;0.880;2022-09-28T04:18:26;996.008;;;10.9375;45.748
73306;BME280;61530;51.158;0.880;2022-09-28T04:19:32;996.003;;;11.0;46.6964
73306;BME280;61530;51.158;0.880;2022-09-28T04:20:32;996.018;;;10.9375;46.3198
73306;BME280;61530;51.158;0.880;2022-09-28T04:21:38;996.039;;;11.0;45.942
73306;BME280;61530;51.158;0.880;2022-09-28T04:22:44;996.049;;;11.0;45.992
73306;BME280;61530;51.158;0.880;2022-09-28T04:23:47;996.037;;;11.0;46.0496
73306;BME280;61530;51.158;0.880;2022-09-28T04:24:51;996.056;;;11.0;45.7552
73306;BME280;61530;51.158;0.880;2022-09-28T04:25:52;996.043;;;11.0625;45.7775
73306;BME280;61530;51.158;0.880;2022-09-28T04:26:58;996.045;;;11.0;46.0435
73306;BME280;61530;51.158;0.880;2022-09-28T04:28:03;996.033;;;11.0625;45.4211
73306;BME280;61530;51.158;0.880;2022-09-28T04:29:04;996.07;;;11.0625;45.1044
73306;BME280;61530;51.158;0.880;2022-09-28T04:30:04;996.047;;;11.0625;45.9849
73306;BME280;61530;51.158;0.880;2022-09-28T04:31:12;996.052;;;11.0625;45.93
73306;BME280;61530;51.158;0.880;2022-09-28T04:32:15;996.05;;;11.0625;45.3235
73306;BME280;61530;51.158;0.880;2022-09-28T04:33:22;996.035;;;11.125;45.3822
73306;BME280;61530;51.158;0.880;2022-09-28T04:34:23;996.048;;;11.0;45.4507
73306;BME280;61530;51.158;0.880;2022-09-28T04:35:29;996.07;;;11.0;45.9211
73306;BME280;61530;51.158;0.880;2022-09-28T04:36:35;996.072;;;11.0625;45.949
73306;BME280;61530;51.158;0.880;2022-09-28T04:37:41;996.103;;;11.0;45.3997
73306;BME280;61530;51.158;0.880;2022-09-28T04:38:41;996.099;;;11.0;45.3888
73306;BME280;61530;51.158;0.880;2022-09-28T04:39:47;996.115;;;11.0;45.5412
73306;BME280;61530;51.158;0.880;2022-09-28T04:40:52;996.134;;;11.0;44.8945
73306;BME280;61530;51.158;0.880;2022-09-28T04:41:53;996.149;;;11.0;45.1608
73306;BME280;61530;51.158;0.880;2022-09-28T04:42:59;996.16;;;11.0625;44.8318
73306;BME280;61530;51.158;0.880;2022-09-28T04:44:05;996.162;;;10.9375;45.4888
73306;BME280;61530;51.158;0.880;2022-09-28T04:45:06;996.178;;;11.0;45.9474
73306;BME280;61530;51.158;0.880;2022-09-28T04:46:11;996.189;;;11.0;45.5563
73306;BME280;61530;51.158;0.880;2022-09-28T04:47:16;996.173;;;11.0625;45.9874
73306;BME280;61530;51.158;0.880;2022-09-28T04:48:17;996.174;;;11.0;45.7825
73306;BME280;61530;51.158;0.880;2022-09-28T04:49:23;996.205;;;11.0;45.9745
73306;BME280;61530;51.158;0.880;2022-09-28T04:50:29;996.198;;;11.0;45.506
73306;BME280;61530;51.158;0.880;2022-09-28T04:51:30;996.211;;;10.875;45.441
73306;BME280;61530;51.158;0.880;2022-09-28T04:52:35;996.229;;;10.9375;45.7877
73306;BME280;61530;51.158;0.880;2022-09-28T04:53:40;996.218;;;10.875;46.0876
73306;BME280;61530;51.158;0.880;2022-09-28T04:54:41;996.217;;;10.875;45.607
73306;BME280;61530;51.158;0.880;2022-09-28T04:55:41;996.2;;;10.9375;45.3815
73306;BME280;61530;51.158;0.880;2022-09-28T04:56:47;996.216;;;10.9375;44.9494
73306;BME280;61530;51.158;0.880;2022-09-28T04:57:53;996.205;;;10.9375;45.2503
73306;BME280;61530;51.158;0.880;2022-09-28T04:58:59;996.2;;;11.0;45.6534
73306;BME280;61530;51.158;0.880;2022-09-28T05:00:05;996.192;;;10.875;44.5315
73306;BME280;61530;51.158;0.880;2022-09-28T05:01:07;996.171;;;10.9375;45.1992
73306;BME280;61530;51.158;0.880;2022-09-28T05:02:11;996.187;;;10.9375;45.0282
73306;BME280;61530;51.158;0.880;2022-09-28T05:03:16;996.178;;;10.8125;45.0622
73306;BME280;61530;51.158;0.880;2022-09-28T05:04:17;996.152;;;10.75;44.0889
73306;BME280;61530;51.158;0.880;2022-09-28T05:05:23;996.184;;;10.8125;44.4037
73306;BME280;61530;51.158;0.880;2022-09-28T05:06:23;996.16;;;10.8125;43.9991
73306;BME280;61530;51.158;0.880;2022-09-28T05:07:29;996.157;;;10.875;43.8126
73306;BME280;61530;51.158;0.880;2022-09-28T05:08:35;996.144;;;10.875;42.2579
73306;BME280;61530;51.158;0.880;2022-09-28T05:09:41;996.127;;;10.875;42.4917
73306;BME280;61530;51.158;0.880;2022-09-28T05:10:41;996.127;;;10.875;42.9209
73306;BME280;61530;51.158;0.880;2022-09-28T05:11:48;996.123;;;10.8125;43.7992
73306;BME280;61530;51.158;0.880;2022-09-28T05:12:52;996.15;;;10.8125;44.8238
73306;BME280;61530;51.158;0.880;2022-09-28T05:13:53;996.151;;;10.75;44.3024
73306;BME280;61530;51.158;0.880;2022-09-28T05:14:59;996.125;;;10.75;44.6913
73306;BME280;61530;51.158;0.880;2022-09-28T05:16:05;996.112;;;10.75;44.839
73306;BME280;61530;51.158;0.880;2022-09-28T05:17:05;996.122;;;10.6875;43.6027
73306;BME280;61530;51.158;0.880;2022-09-28T05:18:11;996.115;;;10.625;44.3196
73306;BME280;61530;51.158;0.880;2022-09-28T05:19:16;996.105;;;10.625;43.1113
73306;BME280;61530;51.158;0.880;2022-09-28T05:20:17;996.113;;;10.625;43.8974
73306;BME280;61530;51.158;0.880;2022-09-28T05:21:23;996.112;;;10.625;44.2871
73306;BME280;61530;51.158;0.880;2022-09-28T05:22:28;996.129;;;10.6875;44.6262
73306;BME280;61530;51.158;0.880;2022-09-28T05:23:29;996.106;;;10.625;44.5244
73306;BME280;61530;51.158;0.880;2022-09-28T05:24:35;996.119;;;10.625;44.0819
73306;BME280;61530;51.158;0.880;2022-09-28T05:25:41;996.106;;;10.5625;44.5968
73306;BME280;61530;51.158;0.880;2022-09-28T05:26:41;996.11;;;10.625;44.6757
73306;BME280;61530;51.158;0.880;2022-09-28T05:27:47;996.106;;;10.6875;44.7996
73306;BME280;61530;51.158;0.880;2022-09-28T05:28:52;996.097;;;10.625;44.0639
73306;BME280;61530;51.158;0.880;2022-09-28T05:29:53;996.126;;;10.6875;44.6633